Ana Sayfa
METAR-TAF:

METAR-TAF

Havaalanları :

Biak, Endonezya

Enlem: 01-11S, Boylam: 136-07E, yükseklik: 11 m

METAR: eksik

Saat: 03:46 (20:46 UTC)

Tahmin

Rapor saat 17:00 UTC de 3 saat ve 46 dakika önce yapıldı.
Ayın 31'si saat 18 UTC'den ayın 02'si saat 00 UTC'ye kadar geçerli Tahmin
Rüzgar kuzeydan kt
Görüş mesafesi 10 km veya daha fazla
1800 ft yükseklikte parçalı bulutlu
Geçici
ayın 31'si saat 18 UTC'den ayın 31'si saat 22 UTC'ye kadar
Görüş mesafesi: 5000 m
1700 ft yükseklikte az bulutlu, Kümülonimbus.
yağmur
Dönüşüyor
ayın 31'si saat 22 UTC'den ayın 01'si saat 00 UTC'ye kadar
Rüzgar güney/güneydoğudan 4 kt
Geçici
ayın 01'si saat 03 UTC'den ayın 01'si saat 07 UTC'ye kadar
Görüş mesafesi: 5000 m
1700 ft yükseklikte az bulutlu, Kümülonimbus.
yağmur

TAF: WABB 311700Z 3118/0200 00000KT 9999 SCT018 TEMPO 3118/3122 5000 RA FEW017CB BECMG 3122/0100 16004KT TEMPO 0103/0107 5000 RA FEW017CB

4.000'den fazla havaalanı için hava durumu gözlemleri ve tahminleri (METAR ve TAF raporları).

Kullanılabilir istasyonlar harita üzerinde sarı ve kırmızı noktalarla gösterilir.

İstasyonun adını görmek için fareyi noktanın üzerinde gezdirin.

Sonrasında hava gözlem ve tahminlerini görmek için tıklayın.

Haritayı değiştirmek için: yaklaştırmak için siyah artı işaretli yeşil düğmeye ve uzaklaştırmak için de eksi işaretli düğmeye hızla tıklayın; bitişik haritalar için yeşil okları kullanın.


METAR-TAF: